createdAt,value
2022-10-28T00:01:07.986Z,92.22
2022-10-28T00:03:39.545Z,92.19
2022-10-28T00:06:09.654Z,92.57
2022-10-28T00:08:37.657Z,92.79
2022-10-28T00:11:07.438Z,92.45
2022-10-28T00:13:37.968Z,92.17
2022-10-28T00:16:09.274Z,91.95
2022-10-28T00:18:37.298Z,92.28
2022-10-28T00:21:07.167Z,93.50
2022-10-28T00:23:35.538Z,93.00
2022-10-28T00:26:08.117Z,92.75
2022-10-28T00:28:35.923Z,93.53
2022-10-28T00:31:10.288Z,92.79
2022-10-28T00:33:38.246Z,93.31
2022-10-28T00:36:11.683Z,93.72
2022-10-28T00:38:39.950Z,93.51
2022-10-28T00:41:08.541Z,92.81
2022-10-28T00:43:38.354Z,92.74
2022-10-28T00:46:13.910Z,92.57
2022-10-28T00:48:44.682Z,92.56
2022-10-28T00:51:12.695Z,92.79
2022-10-28T00:53:42.210Z,92.82
2022-10-28T00:56:11.083Z,93.09
2022-10-28T00:58:39.047Z,93.38
2022-10-28T01:01:06.882Z,93.08
2022-10-28T01:03:37.713Z,93.36
2022-10-28T01:06:06.536Z,93.26
2022-10-28T01:08:34.425Z,93.07
2022-10-28T01:11:27.643Z,92.57
2022-10-28T01:14:10.940Z,92.63
2022-10-28T01:16:47.874Z,92.59
2022-10-28T01:19:54.331Z,92.21
2022-10-28T01:22:26.803Z,92.75
2022-10-28T01:25:15.557Z,92.85
2022-10-28T01:28:29.497Z,92.74
2022-10-28T01:31:16.742Z,92.30
2022-10-28T01:33:53.464Z,92.46
2022-10-28T01:36:33.515Z,92.17
2022-10-28T01:39:10.569Z,92.64
2022-10-28T01:41:48.545Z,92.47
2022-10-28T01:44:25.928Z,92.91
2022-10-28T01:47:01.158Z,92.02
2022-10-28T01:49:34.813Z,92.43
2022-10-28T01:52:06.092Z,92.42
2022-10-28T01:54:35.715Z,92.47
2022-10-28T01:57:06.032Z,92.49
2022-10-28T01:59:35.592Z,92.38
2022-10-28T02:02:04.858Z,91.91
2022-10-28T02:04:32.658Z,92.09
2022-10-28T02:07:01.858Z,92.18
2022-10-28T02:09:42.216Z,91.83
2022-10-28T02:12:21.801Z,91.59
2022-10-28T02:15:14.970Z,91.84
2022-10-28T02:17:57.834Z,91.56
2022-10-28T02:20:35.693Z,91.19
2022-10-28T02:23:16.465Z,91.51
2022-10-28T02:25:52.419Z,92.00
2022-10-28T02:28:25.840Z,91.63
2022-10-28T02:31:00.209Z,91.74
2022-10-28T02:33:33.580Z,91.68
2022-10-28T02:36:05.877Z,91.54
2022-10-28T02:38:37.345Z,92.08
2022-10-28T02:41:10.431Z,92.11
2022-10-28T02:43:39.781Z,92.39
2022-10-28T02:46:09.291Z,92.21
2022-10-28T02:48:43.941Z,91.64
2022-10-28T02:51:15.093Z,92.18
2022-10-28T02:53:53.931Z,91.91
2022-10-28T02:56:22.943Z,92.56
2022-10-28T02:58:51.014Z,91.91
2022-10-28T03:01:18.885Z,92.28
2022-10-28T03:03:48.070Z,91.81
2022-10-28T03:06:15.924Z,91.88
2022-10-28T03:08:43.730Z,92.06
2022-10-28T03:11:11.594Z,92.37
2022-10-28T03:13:39.385Z,92.44
2022-10-28T03:16:07.339Z,92.09
2022-10-28T03:18:35.090Z,91.67
2022-10-28T03:21:04.347Z,92.79
2022-10-28T03:23:32.203Z,91.98
2022-10-28T03:26:00.080Z,92.51
2022-10-28T03:28:27.898Z,92.75
2022-10-28T03:30:55.771Z,92.46
2022-10-28T03:33:23.571Z,92.72
2022-10-28T03:35:51.420Z,93.04
2022-10-28T03:38:20.538Z,92.70
2022-10-28T03:40:48.979Z,92.33
2022-10-28T03:43:16.971Z,92.59
2022-10-28T03:45:45.454Z,92.95
2022-10-28T03:48:13.289Z,93.01
2022-10-28T03:50:41.187Z,92.70
2022-10-28T03:53:09.175Z,92.63
2022-10-28T03:55:38.361Z,92.53
2022-10-28T03:58:06.115Z,92.41
2022-10-28T04:00:33.971Z,92.45
2022-10-28T04:03:01.781Z,92.87
2022-10-28T04:05:29.628Z,93.39
2022-10-28T04:07:57.346Z,93.29
2022-10-28T04:10:25.189Z,93.55
2022-10-28T04:12:54.607Z,93.73
2022-10-28T04:15:22.517Z,93.81
2022-10-28T04:17:50.301Z,93.56
2022-10-28T04:20:18.129Z,93.59
2022-10-28T04:22:45.861Z,93.48
2022-10-28T04:27:46.488Z,94.03
2022-10-28T04:30:16.330Z,92.97
2022-10-28T04:32:45.191Z,92.84
2022-10-28T04:35:14.160Z,92.94
2022-10-28T04:37:42.485Z,92.88
2022-10-28T04:40:10.916Z,93.48
2022-10-28T04:42:38.799Z,93.20
2022-10-28T04:45:07.847Z,93.52
2022-10-28T04:47:36.977Z,93.41
2022-10-28T04:50:05.625Z,93.88
2022-10-28T04:52:33.408Z,94.19
2022-10-28T04:55:01.264Z,94.33
2022-10-28T04:57:29.172Z,94.05
2022-10-28T04:59:56.936Z,93.78
2022-10-28T05:02:24.922Z,93.30
2022-10-28T05:04:54.166Z,93.52
2022-10-28T05:07:23.571Z,93.40
2022-10-28T05:09:51.464Z,93.79
2022-10-28T05:12:19.303Z,94.05
2022-10-28T05:14:48.991Z,94.71
2022-10-28T05:17:18.985Z,94.91
2022-10-28T05:19:46.717Z,94.55
2022-10-28T05:22:15.817Z,94.34
2022-10-28T05:24:43.623Z,94.18
2022-10-28T05:27:12.506Z,93.91
2022-10-28T05:29:40.274Z,93.53
2022-10-28T05:32:08.084Z,93.92
2022-10-28T05:34:36.207Z,94.21
2022-10-28T05:37:04.069Z,94.34
2022-10-28T05:39:33.212Z,94.41
2022-10-28T05:42:01.050Z,94.30
2022-10-28T05:44:28.818Z,94.15
2022-10-28T05:46:56.558Z,94.15
2022-10-28T05:49:24.389Z,93.91
2022-10-28T05:51:52.155Z,94.38
2022-10-28T05:54:20.217Z,93.97
2022-10-28T05:56:49.584Z,93.80
2022-10-28T05:59:17.425Z,94.03
2022-10-28T06:01:45.267Z,94.04
2022-10-28T06:04:13.085Z,94.17
2022-10-28T06:06:40.932Z,94.33
2022-10-28T06:09:08.750Z,94.29
2022-10-28T06:11:35.305Z,93.90
2022-10-28T06:14:04.433Z,94.65
2022-10-28T06:16:32.367Z,94.75
2022-10-28T06:19:00.400Z,94.82
2022-10-28T06:21:28.137Z,94.86
2022-10-28T06:23:55.909Z,94.97
2022-10-28T06:26:23.743Z,95.16
2022-10-28T06:28:51.511Z,95.29
2022-10-28T06:31:20.610Z,95.32
2022-10-28T06:33:48.409Z,94.67
2022-10-28T06:36:16.453Z,95.12
2022-10-28T06:38:44.227Z,95.27
2022-10-28T06:41:12.085Z,95.36
2022-10-28T06:43:40.011Z,95.38
2022-10-28T06:46:07.776Z,95.35
2022-10-28T06:48:38.430Z,95.88
2022-10-28T06:51:06.669Z,95.90
2022-10-28T06:53:34.386Z,95.03
2022-10-28T06:56:02.310Z,95.00
2022-10-28T06:58:30.088Z,94.20
2022-10-28T07:00:57.987Z,93.71
2022-10-28T07:03:25.781Z,94.07
2022-10-28T07:05:56.131Z,93.21
2022-10-28T07:08:24.013Z,94.34
2022-10-28T07:10:56.341Z,93.09
2022-10-28T07:13:24.490Z,93.25
2022-10-28T07:15:59.696Z,92.33
2022-10-28T07:18:29.839Z,91.18
2022-10-28T07:21:01.086Z,90.83
2022-10-28T07:23:31.452Z,91.00
2022-10-28T07:25:59.525Z,91.47
2022-10-28T07:28:28.161Z,92.48
2022-10-28T07:30:56.420Z,92.31
2022-10-28T07:33:24.354Z,91.69
2022-10-28T07:35:52.150Z,90.13
2022-10-28T07:38:21.317Z,90.48
2022-10-28T07:40:49.232Z,91.26
2022-10-28T07:43:17.092Z,91.27
2022-10-28T07:45:45.002Z,91.28
2022-10-28T07:48:12.865Z,89.94
2022-10-28T07:50:41.355Z,89.29
2022-10-28T07:53:09.289Z,88.89
2022-10-28T07:55:38.733Z,89.72
2022-10-28T07:58:06.719Z,89.11
2022-10-28T08:00:34.920Z,87.72
2022-10-28T08:03:03.720Z,86.97
2022-10-28T08:05:31.508Z,88.28
2022-10-28T08:07:59.257Z,87.78
2022-10-28T08:10:27.748Z,87.94
2022-10-28T08:12:58.873Z,86.15
2022-10-28T08:15:27.288Z,86.31
2022-10-28T08:17:55.678Z,87.09
2022-10-28T08:20:24.520Z,86.87
2022-10-28T08:22:52.698Z,86.78
2022-10-28T08:25:20.869Z,86.79
2022-10-28T08:27:48.591Z,86.48
2022-10-28T08:30:18.493Z,85.07
2022-10-28T08:32:46.325Z,82.21
2022-10-28T08:35:14.430Z,82.63
2022-10-28T08:37:46.018Z,83.80
2022-10-28T08:40:14.687Z,81.89
2022-10-28T08:42:47.407Z,82.08
2022-10-28T08:45:41.636Z,81.20
2022-10-28T08:48:20.083Z,80.71
2022-10-28T08:50:53.201Z,78.82
2022-10-28T08:53:25.734Z,79.43
2022-10-28T08:55:59.553Z,79.63
2022-10-28T08:58:33.205Z,80.42
2022-10-28T09:01:02.768Z,75.88
2022-10-28T09:03:36.768Z,78.20
2022-10-28T09:06:08.937Z,77.59
2022-10-28T09:08:39.789Z,76.89
2022-10-28T09:11:38.350Z,76.85
2022-10-28T09:14:22.082Z,75.51
2022-10-28T09:16:58.561Z,76.40
2022-10-28T09:19:40.952Z,75.79
2022-10-28T09:22:21.794Z,75.77
2022-10-28T09:24:54.570Z,75.49
2022-10-28T09:27:53.739Z,74.33
2022-10-28T09:30:33.735Z,74.56
2022-10-28T09:33:14.384Z,73.96
2022-10-28T09:35:44.293Z,73.71
2022-10-28T09:38:19.328Z,73.52
2022-10-28T09:40:54.075Z,72.75
2022-10-28T09:43:27.930Z,71.00
2022-10-28T09:46:01.321Z,71.60
2022-10-28T09:48:33.981Z,69.73
2022-10-28T09:51:02.110Z,68.11
2022-10-28T09:53:42.839Z,67.55
2022-10-28T09:56:12.007Z,68.98
2022-10-28T09:58:45.935Z,69.33
2022-10-28T10:01:14.569Z,67.22
2022-10-28T10:03:45.120Z,70.30
2022-10-28T10:06:16.516Z,68.83
2022-10-28T10:08:45.123Z,69.24
2022-10-28T10:11:22.820Z,68.60
2022-10-28T10:13:51.159Z,69.10
2022-10-28T10:16:25.221Z,69.18
2022-10-28T10:18:58.749Z,68.14
2022-10-28T10:21:42.497Z,66.63
2022-10-28T10:24:33.623Z,67.28
2022-10-28T10:27:04.924Z,67.24
2022-10-28T10:29:33.276Z,66.84
2022-10-28T10:32:16.910Z,67.50
2022-10-28T10:34:57.613Z,67.20
2022-10-28T10:37:25.559Z,66.57
2022-10-28T10:40:16.350Z,66.28
2022-10-28T10:42:57.358Z,66.83
2022-10-28T10:45:32.513Z,66.85
2022-10-28T10:48:12.696Z,65.77
2022-10-28T10:50:43.159Z,64.46
2022-10-28T10:53:21.081Z,64.48
2022-10-28T10:55:55.431Z,64.34
2022-10-28T10:58:25.710Z,65.05
2022-10-28T11:00:55.697Z,64.89
2022-10-28T11:03:28.415Z,64.21
2022-10-28T11:06:22.148Z,64.55
2022-10-28T11:08:48.146Z,63.47
2022-10-28T11:11:20.677Z,62.96
2022-10-28T11:13:50.277Z,62.28
2022-10-28T11:16:20.702Z,62.94
2022-10-28T11:18:51.689Z,61.52
2022-10-28T11:21:37.476Z,61.04
2022-10-28T11:24:21.269Z,62.39
2022-10-28T11:26:56.521Z,60.71
2022-10-28T11:29:25.569Z,61.69
2022-10-28T11:32:11.518Z,59.50
2022-10-28T11:34:56.815Z,60.09
2022-10-28T11:37:36.486Z,59.79
2022-10-28T11:40:14.407Z,60.84
2022-10-28T11:42:53.248Z,60.28
2022-10-28T11:45:28.023Z,58.55
2022-10-28T11:48:12.224Z,59.58
2022-10-28T11:50:50.207Z,57.74
2022-10-28T11:53:52.503Z,57.20
2022-10-28T11:56:32.175Z,56.83
2022-10-28T11:59:23.244Z,56.92
2022-10-28T12:01:59.975Z,56.10
2022-10-28T12:04:48.677Z,56.38
2022-10-28T12:07:35.572Z,56.63
2022-10-28T12:10:20.434Z,56.04
2022-10-28T12:12:57.734Z,55.72
2022-10-28T12:15:35.949Z,55.72
2022-10-28T12:18:10.698Z,56.47
2022-10-28T12:20:47.937Z,56.45
2022-10-28T12:23:19.787Z,55.39
2022-10-28T12:25:52.796Z,55.77
2022-10-28T12:28:23.869Z,55.11
2022-10-28T12:30:53.720Z,55.34
2022-10-28T12:33:26.602Z,56.49
2022-10-28T12:36:01.762Z,56.34
2022-10-28T12:38:35.720Z,55.81
2022-10-28T12:41:12.800Z,56.22
2022-10-28T12:43:45.201Z,55.40
2022-10-28T12:46:21.416Z,55.51
2022-10-28T12:48:56.114Z,55.53
2022-10-28T12:51:31.505Z,55.54
2022-10-28T12:54:04.392Z,54.87
2022-10-28T12:56:38.573Z,54.48
2022-10-28T12:59:12.966Z,54.12
2022-10-28T13:01:42.167Z,54.22
2022-10-28T13:04:13.478Z,53.47
2022-10-28T13:07:07.702Z,54.34
2022-10-28T13:09:46.155Z,54.48
2022-10-28T13:12:47.085Z,54.61
2022-10-28T13:15:40.688Z,53.69
2022-10-28T13:18:31.101Z,52.89
2022-10-28T13:21:12.230Z,53.89
2022-10-28T13:23:46.255Z,53.12
2022-10-28T13:26:23.496Z,52.09
2022-10-28T13:28:55.344Z,51.41
2022-10-28T13:31:23.680Z,50.98
2022-10-28T13:33:58.024Z,52.40
2022-10-28T13:36:32.563Z,51.88
2022-10-28T13:39:04.504Z,51.46
2022-10-28T13:41:42.238Z,51.64
2022-10-28T13:44:29.303Z,51.28
2022-10-28T13:47:26.223Z,51.71
2022-10-28T13:50:26.118Z,52.29
2022-10-28T13:53:39.924Z,51.18
2022-10-28T13:56:23.150Z,51.58
2022-10-28T13:58:53.581Z,52.10
2022-10-28T14:02:33.171Z,51.25
2022-10-28T14:05:00.514Z,52.47
2022-10-28T14:07:31.601Z,52.45
2022-10-28T14:10:23.512Z,52.01
2022-10-28T14:12:54.915Z,52.83
2022-10-28T14:15:27.040Z,54.92
2022-10-28T14:18:10.255Z,55.98
2022-10-28T14:20:59.023Z,55.80
2022-10-28T14:24:06.760Z,56.03
2022-10-28T14:27:22.931Z,55.68
2022-10-28T14:30:05.146Z,55.87
2022-10-28T14:32:43.660Z,56.45
2022-10-28T14:35:24.803Z,56.60
2022-10-28T14:38:18.319Z,56.19
2022-10-28T14:40:50.777Z,56.21
2022-10-28T14:43:43.225Z,56.29
2022-10-28T14:46:30.746Z,56.24
2022-10-28T14:49:00.575Z,57.34
2022-10-28T14:51:38.815Z,57.74
2022-10-28T14:54:16.096Z,58.19
2022-10-28T14:56:44.748Z,57.80
2022-10-28T14:59:32.638Z,59.33
2022-10-28T15:02:05.202Z,59.25
2022-10-28T15:04:33.492Z,58.74
2022-10-28T15:07:03.546Z,59.07
2022-10-28T15:09:34.942Z,59.03
2022-10-28T15:12:06.821Z,60.14
2022-10-28T15:14:37.509Z,60.04
2022-10-28T15:17:16.682Z,60.42
2022-10-28T15:19:45.525Z,60.52
2022-10-28T15:22:18.168Z,60.24
2022-10-28T15:24:55.454Z,60.11
2022-10-28T15:27:25.693Z,60.49
2022-10-28T15:29:54.077Z,60.17
2022-10-28T15:32:30.818Z,59.54
2022-10-28T15:34:58.959Z,60.72
2022-10-28T15:37:29.929Z,60.43
2022-10-28T15:40:14.256Z,60.57
2022-10-28T15:42:45.761Z,60.94
2022-10-28T15:45:19.634Z,60.97
2022-10-28T15:47:48.462Z,61.10
2022-10-28T15:50:33.074Z,61.34
2022-10-28T15:53:32.148Z,61.73
2022-10-28T15:56:18.449Z,62.12
2022-10-28T15:58:48.376Z,61.67
2022-10-28T16:01:31.677Z,62.05
2022-10-28T16:04:00.227Z,62.07
2022-10-28T16:06:31.602Z,62.10
2022-10-28T16:09:03.849Z,63.32
2022-10-28T16:11:32.999Z,63.70
2022-10-28T16:14:21.749Z,64.61
2022-10-28T16:16:49.999Z,64.96
2022-10-28T16:19:28.343Z,65.48
2022-10-28T16:21:56.492Z,66.45
2022-10-28T16:24:25.809Z,67.03
2022-10-28T16:26:53.793Z,66.90
2022-10-28T16:29:21.554Z,67.21
2022-10-28T16:31:52.896Z,67.88
2022-10-28T16:34:20.711Z,67.37
2022-10-28T16:36:48.675Z,67.92
2022-10-28T16:39:16.597Z,67.57
2022-10-28T16:41:45.792Z,67.70
2022-10-28T16:44:19.168Z,67.49
2022-10-28T16:46:46.969Z,67.63
2022-10-28T16:49:14.935Z,67.56
2022-10-28T16:51:42.714Z,67.54
2022-10-28T16:54:11.374Z,68.56
2022-10-28T16:56:39.163Z,67.76
2022-10-28T16:59:08.510Z,68.28
2022-10-28T17:01:36.521Z,67.80
2022-10-28T17:04:04.624Z,69.05
2022-10-28T17:06:32.483Z,69.68
2022-10-28T17:09:03.289Z,69.23
2022-10-28T17:14:00.016Z,70.61
2022-10-28T17:16:29.217Z,71.07
2022-10-28T17:18:57.323Z,71.20
2022-10-28T17:21:28.694Z,70.96
2022-10-28T17:23:56.432Z,71.55
2022-10-28T17:26:24.308Z,71.20
2022-10-28T17:28:52.961Z,71.18
2022-10-28T17:31:24.783Z,71.53
2022-10-28T17:33:57.901Z,72.01
2022-10-28T17:36:25.815Z,72.24
2022-10-28T17:38:53.759Z,72.72
2022-10-28T17:41:21.688Z,73.06
2022-10-28T17:43:52.907Z,72.56
2022-10-28T17:46:21.176Z,72.25
2022-10-28T17:48:49.490Z,73.81
2022-10-28T17:51:20.841Z,74.85
2022-10-28T17:53:53.674Z,74.97
2022-10-28T17:56:21.591Z,76.44
2022-10-28T17:58:49.813Z,76.05
2022-10-28T18:01:18.090Z,76.54
2022-10-28T18:03:46.083Z,77.28
2022-10-28T18:06:14.181Z,77.22
2022-10-28T18:08:44.739Z,77.21
2022-10-28T18:11:20.921Z,76.66
2022-10-28T18:13:52.842Z,77.16
2022-10-28T18:16:24.195Z,76.10
2022-10-28T18:18:53.864Z,76.01
2022-10-28T18:21:22.938Z,75.52
2022-10-28T18:23:54.436Z,75.80
2022-10-28T18:26:24.440Z,76.12
2022-10-28T18:28:52.289Z,76.17
2022-10-28T18:31:21.369Z,76.23
2022-10-28T18:33:49.280Z,76.21
2022-10-28T18:36:19.322Z,76.38
2022-10-28T18:38:50.139Z,76.66
2022-10-28T18:41:20.732Z,76.95
2022-10-28T18:43:48.882Z,77.61
2022-10-28T18:46:17.407Z,77.75
2022-10-28T18:48:45.266Z,78.01
2022-10-28T18:51:13.984Z,78.36
2022-10-28T18:53:43.753Z,78.56
2022-10-28T18:56:13.692Z,79.34
2022-10-28T18:58:43.294Z,79.13
2022-10-28T19:01:13.521Z,79.15
2022-10-28T19:03:42.392Z,78.96
2022-10-28T19:06:11.788Z,78.91
2022-10-28T19:08:40.930Z,78.66
2022-10-28T19:11:11.267Z,78.40
2022-10-28T19:13:40.866Z,79.35
2022-10-28T19:18:40.549Z,79.24
2022-10-28T19:21:11.372Z,79.28
2022-10-28T19:23:39.646Z,79.43
2022-10-28T19:26:08.292Z,79.33
2022-10-28T19:28:40.138Z,79.29
2022-10-28T19:31:11.832Z,78.83
2022-10-28T19:33:39.964Z,79.47
2022-10-28T19:36:11.248Z,79.49
2022-10-28T19:38:39.697Z,79.54
2022-10-28T19:41:10.084Z,79.57
2022-10-28T19:43:38.271Z,79.03
2022-10-28T19:46:08.512Z,79.16
2022-10-28T19:48:38.181Z,77.99
2022-10-28T19:51:06.111Z,77.99
2022-10-28T19:53:34.120Z,77.67
2022-10-28T19:56:04.288Z,76.60
2022-10-28T19:58:33.311Z,76.10
2022-10-28T20:01:03.460Z,76.27
2022-10-28T20:03:34.538Z,76.70
2022-10-28T20:06:07.836Z,77.17
2022-10-28T20:08:36.580Z,77.73
2022-10-28T20:11:07.000Z,77.50
2022-10-28T20:13:35.784Z,77.26
2022-10-28T20:16:05.715Z,77.43
2022-10-28T20:18:34.550Z,77.78
2022-10-28T20:21:10.752Z,78.68
2022-10-28T20:23:39.045Z,80.25
2022-10-28T20:26:08.404Z,80.75
2022-10-28T20:28:36.871Z,80.81
2022-10-28T20:31:10.935Z,81.33
2022-10-28T20:33:41.329Z,82.20
2022-10-28T20:36:23.363Z,82.44
2022-10-28T20:38:54.349Z,82.74
2022-10-28T20:41:25.713Z,83.23
2022-10-28T20:43:54.809Z,83.74
2022-10-28T20:46:23.313Z,84.13
2022-10-28T20:48:54.114Z,85.05
2022-10-28T20:51:25.225Z,84.67
2022-10-28T20:53:53.224Z,84.22
2022-10-28T20:56:23.749Z,84.28
2022-10-28T20:58:52.081Z,84.99
2022-10-28T21:01:21.802Z,85.67
2022-10-28T21:03:50.761Z,85.84
2022-10-28T21:06:18.964Z,85.67
2022-10-28T21:08:48.503Z,86.03
2022-10-28T21:11:17.949Z,86.31
2022-10-28T21:13:51.817Z,87.33
2022-10-28T21:16:19.806Z,86.66
2022-10-28T21:18:47.880Z,87.24
2022-10-28T21:21:16.448Z,87.35
2022-10-28T21:23:44.673Z,87.66
2022-10-28T21:26:14.311Z,87.80
2022-10-28T21:28:42.397Z,87.58
2022-10-28T21:31:12.502Z,87.47
2022-10-28T21:33:41.060Z,88.40
2022-10-28T21:36:12.308Z,88.30
2022-10-28T21:38:40.364Z,88.73
2022-10-28T21:41:10.979Z,88.96
2022-10-28T21:43:43.060Z,89.27
2022-10-28T21:46:11.433Z,89.11
2022-10-28T21:48:39.389Z,88.85
2022-10-28T21:51:11.831Z,88.66
2022-10-28T21:53:45.927Z,89.33
2022-10-28T21:56:18.307Z,89.77
2022-10-28T21:58:49.890Z,89.63
2022-10-28T22:01:20.689Z,90.27
2022-10-28T22:03:49.071Z,90.06
2022-10-28T22:06:17.066Z,89.91
2022-10-28T22:08:46.805Z,90.68
2022-10-28T22:11:16.484Z,90.27
2022-10-28T22:13:44.701Z,89.64
2022-10-28T22:16:15.345Z,89.68
2022-10-28T22:18:43.856Z,90.96
2022-10-28T22:21:13.940Z,89.23
2022-10-28T22:23:41.828Z,89.92
2022-10-28T22:26:11.662Z,90.04
2022-10-28T22:28:39.853Z,89.58
2022-10-28T22:31:09.457Z,89.97
2022-10-28T22:33:39.375Z,89.78
2022-10-28T22:36:09.749Z,90.89
2022-10-28T22:38:37.666Z,90.60
2022-10-28T22:41:07.615Z,90.40
2022-10-28T22:43:36.070Z,90.11
2022-10-28T22:46:04.390Z,90.20
2022-10-28T22:48:33.482Z,90.81
2022-10-28T22:51:03.519Z,90.85
2022-10-28T22:53:31.594Z,90.78
2022-10-28T22:56:01.033Z,90.49
2022-10-28T22:58:29.231Z,90.75
2022-10-28T23:01:06.005Z,90.45
2022-10-28T23:03:36.545Z,90.24
2022-10-28T23:06:06.369Z,90.10
2022-10-28T23:08:34.586Z,90.47
2022-10-28T23:11:02.387Z,90.62
2022-10-28T23:13:30.485Z,91.62
2022-10-28T23:16:03.049Z,91.19
2022-10-28T23:18:30.994Z,90.60
2022-10-28T23:21:06.284Z,91.51
2022-10-28T23:23:34.197Z,91.45
2022-10-28T23:26:02.065Z,91.00
2022-10-28T23:28:29.935Z,91.45
2022-10-28T23:31:00.862Z,91.28
2022-10-28T23:33:30.151Z,91.05
2022-10-28T23:35:58.561Z,91.20
2022-10-28T23:38:28.203Z,91.22
2022-10-28T23:41:00.698Z,90.74
2022-10-28T23:43:29.007Z,91.73
2022-10-28T23:45:57.340Z,91.83
2022-10-28T23:48:26.290Z,92.32
2022-10-28T23:50:54.396Z,92.44
2022-10-28T23:53:22.911Z,91.77
2022-10-28T23:55:52.944Z,91.58
2022-10-28T23:58:22.432Z,91.85
